Terminal Aerodrome Forecast
Issued by NWS

Home | Current Version | Previous Version | Text Only | Print | Product List | Glossary On
Versions: 1 2 3 4 5 6 7 8 9 10 11 12
000
FTUS44 KEPZ 181700
TAFDMN
TAF
KDMN 181721Z 1818/1918 22006KT P6SM VCSH SCT040 BKN060
      TEMPO 1819/1822 5SM -TSRA BKN025CB
     FM182200 28011KT P6SM VCSH SCT025 BKN050
      TEMPO 1822/1824 -SHRA BKN025
     FM190800 29006KT P6SM FEW050=

USA.gov is the U.S. government's official web portal to all federal, state and local government web resources and services.